Time;durP1;ratioP1;P1;durP2;ratioP2;P2;SDS_P1;SDS_P2;PMS_P1;PMS_P2;Temp;Humidity;BMP_temperature;BMP_pressure;BME280_temperature;BME280_humidity;BME280_pressure;Samples;Min_cycle;Max_cycle;Signal;HPM_P1;HPM_P2
2023/07/07 00:01:09;;;;;;;;;5.50;4.25;;;;;23.81;33.84;101102.34;5060157;28;45334;-62
2023/07/07 00:03:34;;;;;;;;;5.25;5.00;;;;;23.78;33.88;101100.72;5060318;28;45255;-62
2023/07/07 00:06:01;;;;;;;;;5.75;5.00;;;;;23.77;33.87;101099.00;5060054;28;45179;-62
2023/07/07 00:08:26;;;;;;;;;4.00;4.00;;;;;23.75;33.94;101102.72;5064376;28;45362;-61
2023/07/07 00:10:53;;;;;;;;;5.00;4.25;;;;;23.72;34.00;101101.09;5064556;28;45348;-62
2023/07/07 00:13:19;;;;;;;;;5.00;4.50;;;;;23.69;33.81;101102.16;5059125;28;45368;-62
2023/07/07 00:15:44;;;;;;;;;4.75;4.75;;;;;23.69;33.65;101098.63;5059837;28;45379;-62
2023/07/07 00:18:15;;;;;;;;;6.25;4.75;;;;;23.66;34.14;101101.50;5060137;28;45293;-62
2023/07/07 00:20:41;;;;;;;;;5.00;5.00;;;;;23.64;34.14;101101.59;5059859;28;45202;-62
2023/07/07 00:23:07;;;;;;;;;5.75;4.00;;;;;23.64;34.02;101111.47;5060297;28;45224;-62
2023/07/07 00:25:32;;;;;;;;;5.50;4.75;;;;;23.60;34.02;101109.97;5059714;28;45476;-61
2023/07/07 00:27:58;;;;;;;;;3.25;3.25;;;;;23.57;34.11;101108.34;5058661;28;46021;-62
2023/07/07 00:30:23;;;;;;;;;5.25;5.25;;;;;23.55;34.06;101107.56;5059766;28;45388;-61
2023/07/07 00:32:49;;;;;;;;;8.00;5.00;;;;;23.53;34.05;101106.78;5058812;28;45364;-62
2023/07/07 00:35:14;;;;;;;;;6.50;5.50;;;;;23.50;34.37;101093.59;5059794;28;45252;-62
2023/07/07 00:37:39;;;;;;;;;4.25;4.25;;;;;23.50;34.42;101107.00;5058699;28;46282;-62
2023/07/07 00:40:06;;;;;;;;;4.00;4.00;;;;;23.48;34.27;101104.41;5059790;28;45370;-62
2023/07/07 00:42:31;;;;;;;;;5.00;5.00;;;;;23.47;34.35;101104.47;5058753;28;45333;-62
2023/07/07 00:45:18;;;;;;;;;6.00;6.00;;;;;23.45;34.22;101101.91;5058075;28;45381;-62
2023/07/07 00:47:49;;;;;;;;;6.00;6.00;;;;;23.44;34.33;101104.69;5059825;28;45303;-62
2023/07/07 00:50:16;;;;;;;;;3.00;3.00;;;;;23.40;34.25;101093.28;5059534;28;45333;-62
2023/07/07 00:52:44;;;;;;;;;6.00;5.25;;;;;23.41;34.38;101102.19;5073256;28;45378;-62
2023/07/07 00:55:17;;;;;;;;;5.25;4.25;;;;;23.39;34.40;101104.13;5066608;28;45544;-62
2023/07/07 00:57:43;;;;;;;;;6.50;4.25;;;;;23.36;34.18;101103.34;5079770;28;45506;-62
2023/07/07 01:00:11;;;;;;;;;4.75;4.50;;;;;23.32;34.35;101090.22;5079256;28;45283;-62
2023/07/07 01:02:37;;;;;;;;;4.00;4.00;;;;;23.32;34.64;101082.16;5083507;28;45243;-62
2023/07/07 01:05:05;;;;;;;;;6.75;4.00;;;;;23.30;34.74;101089.47;5083461;28;45419;-62
2023/07/07 01:07:38;;;;;;;;;4.50;4.00;;;;;23.25;34.76;101079.03;5082951;27;46046;-62
2023/07/07 01:10:03;;;;;;;;;6.75;5.50;;;;;23.25;34.64;101079.03;5073438;28;45343;-62
2023/07/07 01:12:29;;;;;;;;;4.75;4.75;;;;;23.23;34.66;101075.56;5063050;28;45537;-62
2023/07/07 01:14:54;;;;;;;;;8.00;5.00;;;;;23.22;34.59;101076.53;5062681;28;45316;-62
2023/07/07 01:17:29;;;;;;;;;5.00;4.00;;;;;23.21;34.54;101077.50;5062910;28;46111;-62
2023/07/07 01:20:22;;;;;;;;;5.75;3.75;;;;;23.19;34.74;101082.97;5062967;28;45390;-62
2023/07/07 01:23:13;;;;;;;;;4.00;4.00;;;;;23.17;34.63;101078.66;5051941;28;45484;-62
2023/07/07 01:25:55;;;;;;;;;8.00;6.50;;;;;23.15;34.72;101083.22;5062467;28;45304;-62
2023/07/07 01:29:14;;;;;;;;;3.00;3.00;;;;;23.13;34.64;101079.75;5062632;28;47053;-61
2023/07/07 01:31:46;;;;;;;;;2.00;2.00;;;;;23.10;34.50;101094.19;5058519;28;45230;-62
2023/07/07 01:34:15;;;;;;;;;7.00;5.75;;;;;23.07;34.54;101082.81;5070497;28;45393;-61
2023/07/07 01:36:40;;;;;;;;;4.75;4.50;;;;;23.05;34.72;101083.75;5081454;28;45865;-61
2023/07/07 01:39:06;;;;;;;;;6.00;5.25;;;;;23.03;34.73;101076.75;5081563;28;45961;-61
2023/07/07 01:42:07;;;;;;;;;5.50;4.75;;;;;23.02;34.95;101075.06;5082783;28;45227;-61
2023/07/07 01:44:44;;;;;;;;;4.75;4.50;;;;;22.98;34.70;101078.88;5081075;28;45378;-61
2023/07/07 01:47:27;;;;;;;;;7.00;6.00;;;;;22.95;35.04;101087.09;5082732;28;45238;-62
2023/07/07 01:50:36;;;;;;;;;4.50;4.25;;;;;22.85;34.63;101071.56;5082555;28;45329;-61
2023/07/07 01:53:09;;;;;;;;;7.00;5.25;;;;;22.88;34.96;101082.13;5052537;28;45305;-61
2023/07/07 01:55:39;;;;;;;;;4.25;4.25;;;;;22.86;34.95;101081.34;5062436;28;45251;-62
2023/07/07 01:58:09;;;;;;;;;6.00;6.00;;;;;22.84;35.07;101080.59;5062251;28;45250;-62
2023/07/07 02:00:35;;;;;;;;;5.50;5.00;;;;;22.83;35.13;101070.81;5062050;28;45240;-61
2023/07/07 02:03:07;;;;;;;;;4.75;4.25;;;;;22.80;34.38;101070.16;5062089;28;45272;-61
2023/07/07 02:05:33;;;;;;;;;6.50;4.50;;;;;22.76;35.01;101077.50;5060788;28;45320;-62
2023/07/07 02:07:58;;;;;;;;;6.00;5.25;;;;;22.73;35.01;101064.31;5062146;28;45290;-62
2023/07/07 02:10:24;;;;;;;;;5.50;5.50;;;;;22.70;35.14;101064.47;5068668;28;47414;-61
2023/07/07 02:12:49;;;;;;;;;7.25;6.00;;;;;22.68;35.20;101066.41;5060115;28;45290;-62
2023/07/07 02:15:14;;;;;;;;;4.00;4.00;;;;;22.68;34.74;101075.28;5061895;28;45410;-62
2023/07/07 02:17:40;;;;;;;;;8.75;5.75;;;;;22.64;34.87;101070.19;5061917;28;45166;-61
2023/07/07 02:20:06;;;;;;;;;5.00;4.75;;;;;22.62;34.96;101075.66;5062027;28;45420;-61
2023/07/07 02:22:31;;;;;;;;;7.00;5.25;;;;;22.60;35.32;101068.66;5061623;28;45158;-61
2023/07/07 02:24:57;;;;;;;;;7.50;6.50;;;;;22.56;34.82;101066.19;5061723;28;45215;-61
2023/07/07 02:27:22;;;;;;;;;5.50;5.50;;;;;22.55;35.29;101061.78;5060381;28;45579;-62
2023/07/07 02:29:47;;;;;;;;;4.75;4.75;;;;;22.49;35.25;101058.59;5061440;28;53151;-62
2023/07/07 02:32:13;;;;;;;;;5.75;4.25;;;;;22.51;34.99;101073.59;5061598;28;45336;-62
2023/07/07 02:34:40;;;;;;;;;6.75;6.25;;;;;22.51;35.21;101067.41;5062023;28;45544;-61
2023/07/07 02:37:12;;;;;;;;;5.50;4.75;;;;;22.48;35.57;101063.09;5061495;28;45649;-62
2023/07/07 02:39:38;;;;;;;;;6.00;6.00;;;;;22.46;35.03;101069.50;5061571;28;45558;-62
2023/07/07 02:42:04;;;;;;;;;7.25;5.00;;;;;22.42;35.21;101066.13;5061286;28;45422;-61
2023/07/07 02:44:30;;;;;;;;;5.25;4.00;;;;;22.41;35.42;101069.75;5060061;28;45485;-62
2023/07/07 02:46:55;;;;;;;;;4.75;3.75;;;;;22.38;35.58;101060.09;5060235;28;45602;-61
2023/07/07 02:49:20;;;;;;;;;3.75;3.75;;;;;22.37;35.70;101061.03;5061643;28;45347;-61
2023/07/07 02:51:46;;;;;;;;;5.00;5.00;;;;;22.34;35.29;101066.56;5066806;28;45268;-61
2023/07/07 02:54:11;;;;;;;;;3.50;3.50;;;;;22.32;35.54;101062.25;5081950;28;45336;-61
2023/07/07 02:56:36;;;;;;;;;3.50;2.25;;;;;22.28;35.13;101060.72;5081548;28;45437;-61
2023/07/07 02:59:01;;;;;;;;;6.00;6.00;;;;;22.28;35.58;101069.59;5081350;28;51633;-61
2023/07/07 03:01:27;;;;;;;;;6.25;6.25;;;;;22.27;35.44;101069.69;5080126;28;45893;-61
2023/07/07 03:03:56;;;;;;;;;5.00;4.50;;;;;22.24;35.18;101071.56;5081912;28;45393;-61
2023/07/07 03:06:22;;;;;;;;;5.00;4.50;;;;;22.23;35.43;101066.31;5080133;28;45410;-61
2023/07/07 03:08:48;;;;;;;;;4.75;4.75;;;;;22.22;35.99;101069.94;5081505;27;45407;-61
2023/07/07 03:11:17;;;;;;;;;4.50;4.50;;;;;22.21;35.69;101068.22;5079885;28;45367;-62
2023/07/07 03:13:45;;;;;;;;;6.50;4.50;;;;;22.19;35.59;101056.75;5080106;28;45325;-61
2023/07/07 03:16:14;;;;;;;;;5.25;5.00;;;;;22.13;35.36;101047.25;5081106;28;45423;-61
2023/07/07 03:18:40;;;;;;;;;5.50;5.00;;;;;22.16;35.55;101063.16;5081139;28;46405;-61
2023/07/07 03:21:07;;;;;;;;;6.25;5.50;;;;;22.16;35.49;101060.47;5081113;28;45488;-61
2023/07/07 03:23:32;;;;;;;;;6.50;5.50;;;;;22.14;35.47;101056.13;5080116;28;45315;-61
2023/07/07 03:26:09;;;;;;;;;6.50;5.25;;;;;22.13;35.43;101059.78;5079631;28;45475;-61
2023/07/07 03:28:34;;;;;;;;;6.00;4.25;;;;;22.11;35.81;101059.84;5081001;28;45486;-61
2023/07/07 03:31:15;;;;;;;;;7.00;6.75;;;;;22.11;35.47;101059.00;5080934;28;45220;-61
2023/07/07 03:33:43;;;;;;;;;5.00;5.00;;;;;22.06;35.91;101065.47;5081169;28;45302;-61
2023/07/07 03:36:10;;;;;;;;;8.75;5.00;;;;;22.05;35.66;101073.59;5081002;27;45251;-61
2023/07/07 03:38:36;;;;;;;;;4.50;4.50;;;;;22.03;36.04;101070.16;5079568;28;47160;-61
2023/07/07 03:41:01;;;;;;;;;4.00;4.00;;;;;22.00;36.15;101067.63;5080764;28;45304;-61
2023/07/07 03:43:27;;;;;;;;;7.50;5.00;;;;;21.98;35.74;101064.19;5080936;28;45306;-62
2023/07/07 03:45:52;;;;;;;;;7.75;6.50;;;;;21.94;36.06;101070.66;5080663;28;45217;-62
2023/07/07 03:48:17;;;;;;;;;7.50;5.00;;;;;21.93;35.92;101075.16;5080849;28;45512;-61
2023/07/07 03:50:43;;;;;;;;;6.25;6.00;;;;;21.89;36.14;101065.59;5075475;28;47379;-61
2023/07/07 03:53:08;;;;;;;;;5.00;5.00;;;;;21.88;35.92;101063.84;5076322;28;45991;-61
2023/07/07 03:55:33;;;;;;;;;6.25;5.00;;;;;21.87;35.99;101064.78;5080704;28;45468;-62
2023/07/07 03:57:59;;;;;;;;;5.25;5.00;;;;;21.85;35.96;101066.72;5080484;28;52691;-61
2023/07/07 04:00:24;;;;;;;;;8.75;6.00;;;;;21.82;36.02;101064.19;5080639;28;45483;-61
2023/07/07 04:02:49;;;;;;;;;6.00;6.00;;;;;21.81;36.19;101067.81;5080694;28;45489;-61
2023/07/07 04:05:15;;;;;;;;;6.75;6.00;;;;;21.79;36.37;101072.41;5080664;28;45373;-61
2023/07/07 04:07:40;;;;;;;;;7.25;7.25;;;;;21.75;36.43;101064.53;5079193;28;48019;-61
2023/07/07 04:10:06;;;;;;;;;3.25;3.25;;;;;21.76;35.93;101070.78;5069104;28;45358;-61
2023/07/07 04:12:31;;;;;;;;;5.50;4.50;;;;;21.73;36.61;101068.25;5060308;28;45217;-61
2023/07/07 04:15:00;;;;;;;;;7.00;5.50;;;;;21.71;36.18;101073.69;5059915;28;45261;-61
2023/07/07 04:17:26;;;;;;;;;5.50;4.75;;;;;21.69;36.49;101066.72;5060074;28;45294;-61
2023/07/07 04:19:52;;;;;;;;;5.50;4.75;;;;;21.65;36.66;101067.84;5058732;28;45269;-61
2023/07/07 04:22:17;;;;;;;;;5.25;5.00;;;;;21.62;36.29;101076.84;5060047;28;45301;-61
2023/07/07 04:24:43;;;;;;;;;3.50;3.00;;;;;21.61;36.43;101072.50;5058764;28;45730;-61
2023/07/07 04:27:08;;;;;;;;;6.25;6.00;;;;;21.57;36.23;101071.78;5059739;28;46178;-61
2023/07/07 04:29:36;;;;;;;;;6.50;5.00;;;;;21.56;36.41;101071.88;5059893;28;45353;-61
2023/07/07 04:32:02;;;;;;;;;6.25;6.25;;;;;21.53;36.39;101075.53;5060128;28;45316;-61
2023/07/07 04:34:27;;;;;;;;;12.50;10.00;;;;;21.52;36.78;101072.94;5060069;28;45330;-61
2023/07/07 04:36:52;;;;;;;;;10.75;9.75;;;;;21.53;36.91;101080.03;5066270;28;45415;-61
2023/07/07 04:39:18;;;;;;;;;20.00;14.50;;;;;21.51;36.91;101080.13;5066591;28;45180;-61
2023/07/07 04:41:43;;;;;;;;;12.75;10.25;;;;;21.47;36.87;101080.34;5065399;28;45301;-61
2023/07/07 04:44:08;;;;;;;;;6.50;6.50;;;;;21.48;36.95;101079.41;5065177;28;45470;-61
2023/07/07 04:46:38;;;;;;;;;7.00;5.75;;;;;21.43;36.75;101076.97;5066277;28;45991;-61
2023/07/07 04:49:08;;;;;;;;;6.50;6.50;;;;;21.41;36.87;101078.91;5066534;28;45526;-61
2023/07/07 04:51:39;;;;;;;;;5.00;5.00;;;;;21.40;36.63;101080.69;5066378;28;45239;-61
2023/07/07 04:54:05;;;;;;;;;7.00;5.00;;;;;21.39;36.58;101078.97;5066545;28;45536;-61
2023/07/07 04:56:33;;;;;;;;;7.00;6.00;;;;;21.36;37.09;101076.47;5066080;28;45439;-61
2023/07/07 04:58:58;;;;;;;;;5.00;5.00;;;;;21.35;37.19;101081.91;5064799;28;45382;-60
2023/07/07 05:01:26;;;;;;;;;7.50;7.00;;;;;21.36;37.01;101079.13;5066331;28;45409;-61
2023/07/07 05:03:55;;;;;;;;;4.50;4.00;;;;;21.34;36.67;101078.34;5066468;28;45556;-61
2023/07/07 05:06:21;;;;;;;;;7.00;4.50;;;;;21.35;37.20;101077.41;5065916;28;46158;-61
2023/07/07 05:08:47;;;;;;;;;6.00;6.00;;;;;21.34;37.24;101078.34;5073037;28;45478;-60
2023/07/07 05:11:17;;;;;;;;;7.75;7.00;;;;;21.35;36.92;101082.75;5066699;28;45256;-61
2023/07/07 05:13:44;;;;;;;;;8.50;5.00;;;;;21.35;37.34;101088.09;5066167;28;45300;-60
2023/07/07 05:16:12;;;;;;;;;7.00;5.25;;;;;21.36;36.83;101080.97;5065729;28;45331;-61
2023/07/07 05:18:39;;;;;;;;;5.75;5.25;;;;;21.35;37.32;101082.75;5065973;28;45269;-61
2023/07/07 05:21:05;;;;;;;;;6.00;6.00;;;;;21.35;37.39;101085.41;5065868;28;45284;-61
2023/07/07 05:23:31;;;;;;;;;9.00;6.25;;;;;21.28;37.21;101073.31;5065966;28;45430;-61
2023/07/07 05:25:57;;;;;;;;;4.75;4.75;;;;;21.32;37.53;101082.94;5065570;28;46613;-61
2023/07/07 05:28:23;;;;;;;;;6.75;5.75;;;;;21.34;37.00;101085.50;5064570;28;46062;-61
2023/07/07 05:30:48;;;;;;;;;8.50;5.25;;;;;21.33;37.60;101089.97;5065938;28;45291;-61
2023/07/07 05:33:14;;;;;;;;;5.75;5.50;;;;;21.34;37.67;101102.41;5066098;28;45315;-61
2023/07/07 05:35:51;;;;;;;;;7.00;7.00;;;;;21.36;37.34;101102.34;5064015;28;45981;-61
2023/07/07 05:38:18;;;;;;;;;5.75;5.00;;;;;21.35;37.25;101093.44;5065640;28;45273;-61
2023/07/07 05:40:45;;;;;;;;;7.00;7.00;;;;;21.37;37.09;101090.69;5066006;28;45249;-60
2023/07/07 05:43:16;;;;;;;;;7.75;6.50;;;;;21.36;37.33;101087.16;5065592;28;45493;-60
2023/07/07 05:45:42;;;;;;;;;7.00;7.00;;;;;21.39;37.69;101089.66;5064028;28;48300;-60
2023/07/07 05:48:08;;;;;;;;;5.25;5.25;;;;;21.39;37.56;101088.78;5061310;28;45667;-61
2023/07/07 05:50:34;;;;;;;;;6.75;5.50;;;;;21.40;37.79;101091.38;5061092;28;45356;-60
2023/07/07 05:53:01;;;;;;;;;7.00;6.00;;;;;21.39;37.22;101083.44;5078303;28;45216;-61
2023/07/07 05:55:29;;;;;;;;;7.00;5.75;;;;;21.42;37.30;101092.16;5082436;28;45310;-61
2023/07/07 05:57:56;;;;;;;;;7.00;7.00;;;;;21.45;37.33;101091.13;5082416;28;45344;-61
2023/07/07 06:00:21;;;;;;;;;7.75;7.75;;;;;21.45;37.83;101092.97;5082376;28;45373;-61
2023/07/07 06:02:47;;;;;;;;;5.25;5.25;;;;;21.48;38.01;101087.44;5080998;28;45350;-61
2023/07/07 06:05:12;;;;;;;;;7.75;7.75;;;;;21.50;37.54;101096.25;5071016;28;50807;-61
2023/07/07 06:07:37;;;;;;;;;7.00;6.25;;;;;21.53;37.85;101096.06;5058551;27;45413;-64
2023/07/07 06:10:03;;;;;;;;;7.00;6.00;;;;;21.54;37.98;101095.13;5066044;27;45612;-62
2023/07/07 06:12:29;;;;;;;;;6.50;5.00;;;;;21.57;38.06;101106.53;5080667;28;45276;-62
2023/07/07 06:14:54;;;;;;;;;6.75;6.00;;;;;21.60;37.89;101102.84;5073295;28;46220;-62
2023/07/07 06:17:20;;;;;;;;;4.75;4.75;;;;;21.60;37.73;101097.50;5068109;28;45314;-60
2023/07/07 06:19:45;;;;;;;;;6.00;6.00;;;;;21.65;38.40;101099.91;5068626;28;45321;-66
2023/07/07 06:22:10;;;;;;;;;13.25;13.25;;;;;21.68;37.86;101097.06;5072768;28;45549;-60
2023/07/07 06:24:35;;;;;;;;;11.00;9.25;;;;;21.72;38.38;101098.63;5073495;28;45267;-60
2023/07/07 06:27:01;;;;;;;;;5.75;5.75;;;;;21.73;38.39;101101.19;5075691;27;49951;-60
2023/07/07 06:29:26;;;;;;;;;7.75;6.25;;;;;21.79;38.14;101107.19;5075012;28;45498;-60
2023/07/07 06:31:51;;;;;;;;;10.50;7.50;;;;;21.81;38.33;101103.47;5070222;28;54978;-65
2023/07/07 06:34:17;;;;;;;;;7.00;6.25;;;;;21.86;37.87;101103.19;5078049;28;47048;-62
2023/07/07 06:36:42;;;;;;;;;7.50;6.25;;;;;21.88;37.97;101095.94;5060986;28;55645;-63
2023/07/07 06:39:07;;;;;;;;;7.75;6.75;;;;;21.92;38.38;101102.84;5074711;28;45244;-61
2023/07/07 06:41:32;;;;;;;;;12.00;8.75;;;;;21.95;37.99;101110.72;5066450;27;47911;-63
2023/07/07 06:43:58;;;;;;;;;10.50;8.50;;;;;21.97;38.08;101108.78;5068553;27;45157;-63
2023/07/07 06:46:25;;;;;;;;;10.00;8.50;;;;;22.01;38.37;101107.69;5080156;28;45506;-63
2023/07/07 06:48:51;;;;;;;;;6.75;6.00;;;;;22.06;38.63;101118.13;5079909;28;45449;-63
2023/07/07 06:51:18;;;;;;;;;7.00;7.00;;;;;22.09;38.64;101120.63;5071697;28;45432;-62
2023/07/07 06:53:44;;;;;;;;;9.75;8.75;;;;;22.10;38.41;101097.41;5080322;28;46998;-62
2023/07/07 06:56:09;;;;;;;;;8.25;6.50;;;;;22.17;38.83;101106.81;5081374;28;45213;-62
2023/07/07 06:58:34;;;;;;;;;7.75;6.25;;;;;22.22;38.59;101115.44;5081751;28;45300;-62
2023/07/07 07:01:00;;;;;;;;;8.25;6.75;;;;;22.28;38.47;101108.88;5081262;28;45411;-62
2023/07/07 07:03:25;;;;;;;;;12.00;7.00;;;;;22.32;38.63;101116.63;5080307;28;45591;-62
2023/07/07 07:05:50;;;;;;;;;8.00;8.00;;;;;22.38;38.48;101118.13;5068324;28;45141;-62
2023/07/07 07:08:16;;;;;;;;;6.50;6.50;;;;;22.42;38.65;101116.16;5064172;28;45322;-62
2023/07/07 07:10:41;;;;;;;;;16.25;14.00;;;;;22.48;38.89;101121.16;5066340;27;45524;-61
2023/07/07 07:13:08;;;;;;;;;10.00;6.00;;;;;22.53;38.93;101113.69;5061025;28;46225;-62
2023/07/07 07:15:33;;;;;;;;;9.25;8.00;;;;;22.54;38.68;101110.03;5064991;28;46104;-62
2023/07/07 07:17:59;;;;;;;;;7.75;7.25;;;;;22.62;38.60;101123.88;5067262;28;45434;-62
2023/07/07 07:20:24;;;;;;;;;12.00;9.00;;;;;22.66;38.74;101120.03;5073200;28;45501;-62
2023/07/07 07:22:50;;;;;;;;;14.75;8.75;;;;;22.69;38.97;101133.28;5079648;28;46216;-62
2023/07/07 07:25:16;;;;;;;;;10.25;6.25;;;;;22.77;38.51;101131.97;5079619;28;45359;-62
2023/07/07 07:27:41;;;;;;;;;8.25;8.25;;;;;22.81;38.92;101125.44;5081162;28;45311;-62
2023/07/07 07:30:08;;;;;;;;;10.25;8.50;;;;;22.84;38.58;101114.53;5080958;28;45448;-62
2023/07/07 07:32:33;;;;;;;;;10.00;7.25;;;;;22.88;39.09;101113.44;5081129;28;45413;-62
2023/07/07 07:34:59;;;;;;;;;10.00;7.50;;;;;22.91;38.85;101117.72;5080870;28;45239;-62
2023/07/07 07:37:25;;;;;;;;;9.75;6.75;;;;;22.97;38.90;101112.00;5081329;28;45254;-62
2023/07/07 07:39:51;;;;;;;;;10.00;8.00;;;;;23.01;38.87;101113.53;5080938;28;45258;-62
2023/07/07 07:42:16;;;;;;;;;8.25;7.00;;;;;23.05;38.80;101107.88;5080876;28;45271;-62
2023/07/07 07:44:42;;;;;;;;;8.00;7.50;;;;;23.12;38.41;101116.44;5080663;28;45249;-62
2023/07/07 07:47:08;;;;;;;;;8.00;6.00;;;;;23.15;38.63;101124.28;5081040;28;45287;-62
2023/07/07 07:49:33;;;;;;;;;11.50;7.75;;;;;23.21;38.60;101117.72;5079551;28;45481;-62
2023/07/07 07:51:59;;;;;;;;;9.50;8.25;;;;;23.25;38.37;101115.72;5073337;28;47025;-62
2023/07/07 07:54:25;;;;;;;;;10.00;7.75;;;;;23.26;38.61;101106.69;5060577;28;45236;-62
2023/07/07 07:56:51;;;;;;;;;10.00;8.75;;;;;23.34;38.84;101126.69;5060462;28;45443;-62
2023/07/07 07:59:17;;;;;;;;;5.25;5.25;;;;;23.36;38.85;101130.16;5058758;28;45311;-62
2023/07/07 08:01:42;;;;;;;;;9.00;8.00;;;;;23.40;38.68;101124.63;5058790;28;45307;-62
2023/07/07 08:04:08;;;;;;;;;9.75;8.00;;;;;23.44;38.80;101135.03;5060452;28;45323;-62
2023/07/07 08:06:34;;;;;;;;;5.50;5.50;;;;;23.46;38.98;101135.81;5060281;28;45276;-62
2023/07/07 08:08:59;;;;;;;;;6.00;6.00;;;;;23.52;38.44;101134.56;5066671;28;45442;-62
2023/07/07 08:11:43;;;;;;;;;10.50;7.25;;;;;23.57;38.76;101131.59;5072449;28;48127;-62
2023/07/07 08:14:17;;;;;;;;;6.50;6.50;;;;;23.61;39.10;101136.69;5069013;28;45312;-62
2023/07/07 08:16:44;;;;;;;;;8.75;7.50;;;;;23.63;39.04;101126.69;5068012;28;45324;-62
2023/07/07 08:19:09;;;;;;;;;8.50;7.00;;;;;23.71;38.68;101142.31;5080294;28;45268;-62
2023/07/07 08:21:36;;;;;;;;;8.00;7.75;;;;;23.72;38.80;101135.13;5071900;28;46216;-62
2023/07/07 08:24:02;;;;;;;;;9.00;8.50;;;;;23.76;38.68;101134.84;5058766;28;45392;-62
2023/07/07 08:26:27;;;;;;;;;9.25;8.75;;;;;23.82;38.88;101128.22;5066640;28;45289;-62
2023/07/07 08:28:53;;;;;;;;;9.25;7.50;;;;;23.87;39.03;101131.44;5065337;28;45512;-62
2023/07/07 08:31:18;;;;;;;;;6.50;5.50;;;;;23.92;38.85;101128.53;5059934;28;46040;-62
2023/07/07 08:33:46;;;;;;;;;8.00;7.25;;;;;23.98;39.08;101125.44;5058470;28;45354;-62
2023/07/07 08:36:12;;;;;;;;;7.75;7.25;;;;;24.01;38.67;101120.75;5060132;28;45423;-62
2023/07/07 08:38:37;;;;;;;;;11.00;9.25;;;;;24.05;38.89;101126.78;5058414;28;46160;-62
2023/07/07 08:41:03;;;;;;;;;9.75;9.75;;;;;24.10;38.97;101121.09;5059821;28;46199;-62
2023/07/07 08:43:30;;;;;;;;;11.00;9.50;;;;;24.17;39.08;101123.25;5058336;28;45343;-62
2023/07/07 08:46:18;;;;;;;;;10.00;8.50;;;;;24.25;38.69;101122.78;5059606;28;45182;-62
2023/07/07 08:48:53;;;;;;;;;12.75;9.75;;;;;24.31;39.04;101117.00;5058465;28;45677;-62
2023/07/07 08:51:22;;;;;;;;;9.50;9.50;;;;;24.40;39.23;101120.91;5059568;28;45399;-62
2023/07/07 08:53:59;;;;;;;;;9.50;9.50;;;;;24.48;38.97;101118.56;5079360;28;45349;-62
2023/07/07 08:56:59;;;;;;;;;9.75;8.50;;;;;24.57;39.21;101124.28;5079875;28;45289;-62
2023/07/07 08:59:49;;;;;;;;;11.75;10.75;;;;;24.66;38.79;101119.16;5063281;28;45498;-62
2023/07/07 09:02:48;;;;;;;;;9.75;7.75;;;;;24.74;39.11;101124.03;5063630;28;48353;-62
2023/07/07 09:05:40;;;;;;;;;10.00;8.00;;;;;24.85;38.71;101125.13;5059365;28;45382;-62
2023/07/07 09:08:25;;;;;;;;;11.25;10.00;;;;;24.92;38.75;101118.38;5059495;28;45324;-62
2023/07/07 09:11:04;;;;;;;;;7.50;6.25;;;;;25.02;38.74;101118.56;5059392;28;45178;-62
2023/07/07 09:13:32;;;;;;;;;10.00;10.00;;;;;25.07;39.37;101117.28;5078272;28;47702;-62
2023/07/07 09:16:04;;;;;;;;;7.50;7.00;;;;;25.18;38.92;101115.69;5079522;28;45240;-62
2023/07/07 09:18:34;;;;;;;;;10.75;7.75;;;;;25.23;39.11;101109.03;5078509;28;45436;-62
2023/07/07 09:21:04;;;;;;;;;8.00;7.25;;;;;25.32;38.70;101112.88;5076447;28;45587;-62
2023/07/07 09:23:39;;;;;;;;;9.50;9.00;;;;;25.41;38.73;101108.72;5062017;28;46858;-62
2023/07/07 09:26:32;;;;;;;;;12.50;9.50;;;;;25.50;38.86;101110.75;5062509;28;45443;-62
2023/07/07 09:28:59;;;;;;;;;10.00;9.50;;;;;25.54;38.55;101097.94;5057812;28;45278;-62
2023/07/07 09:31:30;;;;;;;;;10.25;8.25;;;;;25.64;38.62;101101.66;5062654;28;45449;-62
2023/07/07 09:33:59;;;;;;;;;7.25;7.00;;;;;25.72;39.07;101103.81;5074190;28;48607;-62
2023/07/07 09:36:31;;;;;;;;;14.00;11.75;;;;;25.81;38.88;101097.78;5061291;28;45997;-62
2023/07/07 09:39:07;;;;;;;;;8.50;8.00;;;;;25.88;38.65;101093.63;5061334;28;45294;-62
2023/07/07 09:41:32;;;;;;;;;9.75;9.00;;;;;25.98;38.46;101098.34;5062426;28;45283;-62
2023/07/07 09:44:16;;;;;;;;;10.25;9.25;;;;;26.06;39.18;101095.97;5062119;28;45412;-62
2023/07/07 09:47:06;;;;;;;;;10.75;9.75;;;;;26.13;38.68;101091.84;5062264;28;45239;-63
2023/07/07 09:49:43;;;;;;;;;10.50;8.00;;;;;26.25;38.72;101098.13;5062560;28;45405;-62
2023/07/07 09:52:36;;;;;;;;;8.75;7.25;;;;;26.35;38.49;101101.88;5068258;28;45495;-62
2023/07/07 09:55:07;;;;;;;;;7.25;6.00;;;;;26.43;38.75;101101.31;5082179;28;46271;-62
2023/07/07 09:57:43;;;;;;;;;9.00;8.75;;;;;26.54;38.91;101106.72;5082734;28;45162;-62
2023/07/07 10:00:15;;;;;;;;;9.25;8.75;;;;;26.63;38.33;101104.28;5080994;28;46384;-62
2023/07/07 10:02:41;;;;;;;;;8.25;7.25;;;;;26.69;38.55;101098.44;5082602;28;45347;-63
2023/07/07 10:05:09;;;;;;;;;8.75;7.75;;;;;26.76;38.60;101105.13;5082034;28;47160;-62
2023/07/07 10:07:38;;;;;;;;;6.50;6.50;;;;;26.82;38.73;101099.25;5082467;28;45477;-62
2023/07/07 10:10:05;;;;;;;;;8.75;7.25;;;;;26.89;38.75;101095.09;5081047;27;45319;-62
2023/07/07 10:12:31;;;;;;;;;6.00;6.00;;;;;26.95;38.49;101103.69;5082363;28;45234;-63
2023/07/07 10:14:58;;;;;;;;;10.00;9.25;;;;;27.00;38.06;101094.25;5081975;28;46484;-62
2023/07/07 10:17:50;;;;;;;;;11.25;8.25;;;;;27.06;38.23;101096.47;5082385;28;45237;-62
2023/07/07 10:20:16;;;;;;;;;5.50;5.00;;;;;27.10;38.54;101097.09;5082428;27;45402;-62
2023/07/07 10:22:42;;;;;;;;;11.00;9.00;;;;;27.09;38.74;101077.38;5064041;28;45248;-62
2023/07/07 10:25:13;;;;;;;;;8.50;7.50;;;;;27.20;38.47;101089.97;5061732;28;45379;-62
2023/07/07 10:27:38;;;;;;;;;8.00;7.00;;;;;27.27;38.29;101092.19;5060195;28;45423;-62
2023/07/07 10:30:05;;;;;;;;;7.25;7.25;;;;;27.28;37.80;101083.97;5061692;28;45726;-62
2023/07/07 10:32:31;;;;;;;;;6.25;6.25;;;;;27.33;38.01;101080.91;5061283;28;45248;-62
2023/07/07 10:34:58;;;;;;;;;6.00;6.00;;;;;27.39;38.23;101085.81;5061347;28;45351;-62
2023/07/07 10:37:30;;;;;;;;;6.50;6.50;;;;;27.46;38.19;101088.91;5061588;28;45443;-62
2023/07/07 10:39:57;;;;;;;;;8.00;7.00;;;;;27.49;38.07;101078.72;5061604;28;45308;-62
2023/07/07 10:42:24;;;;;;;;;9.00;9.00;;;;;27.57;38.27;101078.97;5060031;28;45195;-62
2023/07/07 10:44:58;;;;;;;;;12.75;8.50;;;;;27.68;37.92;101086.19;5059776;28;46966;-62
2023/07/07 10:47:36;;;;;;;;;8.50;5.50;;;;;27.82;38.18;101079.66;5067121;28;45466;-62
2023/07/07 10:50:04;;;;;;;;;8.00;7.00;;;;;27.96;37.88;101083.06;5081814;28;45358;-62
2023/07/07 10:52:39;;;;;;;;;10.50;8.00;;;;;28.13;38.06;101076.31;5070340;28;45401;-62
2023/07/07 10:55:19;;;;;;;;;7.50;6.25;;;;;28.36;37.81;101075.22;5081341;28;46193;-62
2023/07/07 10:57:44;;;;;;;;;9.50;7.75;;;;;28.62;37.67;101074.84;5080157;28;45393;-62
2023/07/07 11:00:33;;;;;;;;;10.00;7.00;;;;;28.89;37.86;101065.34;5080089;28;45739;-62
2023/07/07 11:03:17;;;;;;;;;6.00;4.75;;;;;29.22;37.87;101066.09;5081781;28;45488;-62
2023/07/07 11:06:07;;;;;;;;;6.75;6.75;;;;;29.58;37.89;101060.28;5081496;28;45373;-62
2023/07/07 11:08:57;;;;;;;;;9.50;6.00;;;;;29.90;38.08;101059.22;5081551;28;45275;-62
2023/07/07 11:11:31;;;;;;;;;6.25;6.25;;;;;30.26;37.46;101056.81;5081405;28;45461;-62
2023/07/07 11:14:17;;;;;;;;;6.00;5.75;;;;;30.58;37.60;101052.94;5081134;28;45604;-62
2023/07/07 11:17:03;;;;;;;;;6.75;5.00;;;;;30.93;37.13;101054.16;5081237;28;46217;-62
2023/07/07 11:19:53;;;;;;;;;6.50;4.50;;;;;31.26;36.69;101052.78;5079771;28;45261;-62
2023/07/07 11:22:36;;;;;;;;;5.00;5.00;;;;;31.60;36.63;101046.72;5059577;28;45376;-62
2023/07/07 11:25:35;;;;;;;;;8.50;7.00;;;;;31.93;36.35;101048.97;5060869;28;45373;-62
2023/07/07 11:28:17;;;;;;;;;4.00;3.75;;;;;32.14;36.62;101017.91;5060152;28;45726;-63
2023/07/07 11:30:56;;;;;;;;;7.50;7.50;;;;;32.55;36.63;101035.44;5062834;28;45394;-63
2023/07/07 11:33:35;;;;;;;;;6.00;6.00;;;;;32.90;36.09;101041.78;5079756;28;45477;-62
2023/07/07 11:36:31;;;;;;;;;7.75;7.75;;;;;33.24;36.11;101041.97;5080803;28;45634;-63